Etusivu
METAR-TAF:

METAR-TAF

Lentoasemat :

Chōfun lentoasema

Chōfu, Japani

Leveyspiiri: 35-40N, Pituuspiiri: 139-32E, korkeus merenpinnasta: 41 m

Tämänhetkinen sää

Tämä raportti tehtiin 10 tuntia ja 17 minuuttia sitten, kello 07.00 UTC
Tuuli 14 kn pohjoisesta puuskistuen 24 kn:hen, vaihdellen luoteen ja koillisen välillä
Lämpötila 7°C
Kosteus 36%
Ilmanpaine 1021 hPa
Näkyvyys 10 km tai enemmän
Muutamia pilviä 3000 ft:n korkeudessa
Hajanaisia pilviä 5000 ft:n korkeudessa

METAR: RJTF 140700Z 01014G24KT 320V040 9999 FEW030 SCT050 07/M07 Q1021

Aika: 02:17 (17:17 UTC)


TAF: puuttuu

Säähavainnot ja -ennusteet yli 4000 lentoasemalta (METAR- ja TAF-raportit).

Käytössä olevat sääasemat on merkitty karttaan keltaisilla ja punaisilla pisteillä.

Aseta hiiri pisteen päälle nähdäksesi sääaseman nimen.

Klikkaa sitten nähdäksesi säähavainnot ja -ennusteet.

Kartan vaihtaminen: klikkaa mustalla rastilla varustettuja vihreitä pisteitä, niin voit zoomata sisään; viivalla varustettua vihreää pistettä, niin voit zoomata ulos tai vihreitä nuolia, niin pääset viereisille kartoille.


METAR-TAF: